sensor_id;sensor_type;location;lat;lon;timestamp;temperature;humidity
11647;DHT22;5880;52.342;9.662;2023-07-31T00:00:35;20.20;61.60
11647;DHT22;5880;52.342;9.662;2023-07-31T00:03:00;20.20;61.50
11647;DHT22;5880;52.342;9.662;2023-07-31T00:05:26;20.20;61.60
11647;DHT22;5880;52.342;9.662;2023-07-31T00:07:51;20.20;61.50
11647;DHT22;5880;52.342;9.662;2023-07-31T00:10:19;20.30;61.60
11647;DHT22;5880;52.342;9.662;2023-07-31T00:12:45;20.20;61.50
11647;DHT22;5880;52.342;9.662;2023-07-31T00:15:12;20.20;61.60
11647;DHT22;5880;52.342;9.662;2023-07-31T00:17:38;20.10;61.60
11647;DHT22;5880;52.342;9.662;2023-07-31T00:20:04;20.20;61.70
11647;DHT22;5880;52.342;9.662;2023-07-31T00:22:30;20.10;61.70
11647;DHT22;5880;52.342;9.662;2023-07-31T00:24:56;20.20;61.80
11647;DHT22;5880;52.342;9.662;2023-07-31T00:27:23;20.10;61.90
11647;DHT22;5880;52.342;9.662;2023-07-31T00:29:48;20.20;61.90
11647;DHT22;5880;52.342;9.662;2023-07-31T00:32:14;20.20;61.90
11647;DHT22;5880;52.342;9.662;2023-07-31T00:34:40;20.20;62.00
11647;DHT22;5880;52.342;9.662;2023-07-31T00:37:06;20.10;62.30
11647;DHT22;5880;52.342;9.662;2023-07-31T00:39:33;20.20;62.50
11647;DHT22;5880;52.342;9.662;2023-07-31T00:42:00;20.20;63.10
11647;DHT22;5880;52.342;9.662;2023-07-31T00:44:26;20.20;62.80
11647;DHT22;5880;52.342;9.662;2023-07-31T00:46:52;20.20;63.00
11647;DHT22;5880;52.342;9.662;2023-07-31T00:49:19;20.20;63.00
11647;DHT22;5880;52.342;9.662;2023-07-31T00:51:46;20.20;63.10
11647;DHT22;5880;52.342;9.662;2023-07-31T00:54:12;20.20;63.30
11647;DHT22;5880;52.342;9.662;2023-07-31T00:56:38;20.20;63.30
11647;DHT22;5880;52.342;9.662;2023-07-31T00:59:05;20.20;63.40
11647;DHT22;5880;52.342;9.662;2023-07-31T01:01:31;20.20;63.30
11647;DHT22;5880;52.342;9.662;2023-07-31T01:03:57;20.20;63.30
11647;DHT22;5880;52.342;9.662;2023-07-31T01:06:47;20.30;63.50
11647;DHT22;5880;52.342;9.662;2023-07-31T01:09:37;20.30;65.30
11647;DHT22;5880;52.342;9.662;2023-07-31T01:12:14;20.30;64.20
11647;DHT22;5880;52.342;9.662;2023-07-31T01:14:50;20.30;64.10
11647;DHT22;5880;52.342;9.662;2023-07-31T01:17:16;20.30;63.80
11647;DHT22;5880;52.342;9.662;2023-07-31T01:19:42;20.20;63.40
11647;DHT22;5880;52.342;9.662;2023-07-31T01:25:56;20.30;64.70
11647;DHT22;5880;52.342;9.662;2023-07-31T01:31:14;20.20;64.10
11647;DHT22;5880;52.342;9.662;2023-07-31T01:33:43;20.20;63.30
11647;DHT22;5880;52.342;9.662;2023-07-31T01:36:10;20.20;63.20
11647;DHT22;5880;52.342;9.662;2023-07-31T01:38:37;20.20;63.50
11647;DHT22;5880;52.342;9.662;2023-07-31T01:41:02;20.20;63.70
11647;DHT22;5880;52.342;9.662;2023-07-31T01:43:28;20.10;63.80
11647;DHT22;5880;52.342;9.662;2023-07-31T01:45:54;20.10;63.80
11647;DHT22;5880;52.342;9.662;2023-07-31T01:48:19;20.20;63.90
11647;DHT22;5880;52.342;9.662;2023-07-31T01:50:45;20.10;63.90
11647;DHT22;5880;52.342;9.662;2023-07-31T01:53:11;20.10;64.00
11647;DHT22;5880;52.342;9.662;2023-07-31T01:55:38;20.10;63.90
11647;DHT22;5880;52.342;9.662;2023-07-31T01:58:04;20.10;64.00
11647;DHT22;5880;52.342;9.662;2023-07-31T02:00:30;20.10;64.00
11647;DHT22;5880;52.342;9.662;2023-07-31T02:02:55;20.10;64.00
11647;DHT22;5880;52.342;9.662;2023-07-31T02:05:21;20.10;64.00
11647;DHT22;5880;52.342;9.662;2023-07-31T02:07:47;20.10;64.00
11647;DHT22;5880;52.342;9.662;2023-07-31T02:10:13;20.10;64.20
11647;DHT22;5880;52.342;9.662;2023-07-31T02:12:38;20.10;64.20
11647;DHT22;5880;52.342;9.662;2023-07-31T02:15:04;20.10;64.30
11647;DHT22;5880;52.342;9.662;2023-07-31T02:17:30;20.10;64.40
11647;DHT22;5880;52.342;9.662;2023-07-31T02:19:56;20.00;64.40
11647;DHT22;5880;52.342;9.662;2023-07-31T02:22:22;20.10;64.50
11647;DHT22;5880;52.342;9.662;2023-07-31T02:24:47;20.00;64.50
11647;DHT22;5880;52.342;9.662;2023-07-31T02:27:13;19.90;64.60
11647;DHT22;5880;52.342;9.662;2023-07-31T02:29:39;19.90;64.70
11647;DHT22;5880;52.342;9.662;2023-07-31T02:32:04;19.90;64.80
11647;DHT22;5880;52.342;9.662;2023-07-31T02:34:30;19.90;64.90
11647;DHT22;5880;52.342;9.662;2023-07-31T02:36:56;19.90;65.10
11647;DHT22;5880;52.342;9.662;2023-07-31T02:39:22;19.90;65.10
11647;DHT22;5880;52.342;9.662;2023-07-31T02:41:47;19.90;65.20
11647;DHT22;5880;52.342;9.662;2023-07-31T02:44:13;19.90;65.30
11647;DHT22;5880;52.342;9.662;2023-07-31T02:46:40;19.80;65.30
11647;DHT22;5880;52.342;9.662;2023-07-31T02:49:05;19.80;65.40
11647;DHT22;5880;52.342;9.662;2023-07-31T02:51:31;19.80;65.50
11647;DHT22;5880;52.342;9.662;2023-07-31T02:53:57;19.90;65.60
11647;DHT22;5880;52.342;9.662;2023-07-31T02:56:22;19.80;65.50
11647;DHT22;5880;52.342;9.662;2023-07-31T02:58:48;19.90;65.70
11647;DHT22;5880;52.342;9.662;2023-07-31T03:01:14;19.90;65.70
11647;DHT22;5880;52.342;9.662;2023-07-31T03:03:41;19.80;65.70
11647;DHT22;5880;52.342;9.662;2023-07-31T03:06:07;19.80;65.90
11647;DHT22;5880;52.342;9.662;2023-07-31T03:08:32;19.90;65.90
11647;DHT22;5880;52.342;9.662;2023-07-31T03:10:58;19.90;65.90
11647;DHT22;5880;52.342;9.662;2023-07-31T03:13:24;19.90;65.90
11647;DHT22;5880;52.342;9.662;2023-07-31T03:15:50;19.90;66.10
11647;DHT22;5880;52.342;9.662;2023-07-31T03:18:16;19.90;66.90
11647;DHT22;5880;52.342;9.662;2023-07-31T03:20:44;19.90;66.00
11647;DHT22;5880;52.342;9.662;2023-07-31T03:23:10;19.90;66.30
11647;DHT22;5880;52.342;9.662;2023-07-31T03:25:35;19.90;65.90
11647;DHT22;5880;52.342;9.662;2023-07-31T03:28:01;19.90;65.90
11647;DHT22;5880;52.342;9.662;2023-07-31T03:30:27;20.00;65.90
11647;DHT22;5880;52.342;9.662;2023-07-31T03:32:53;19.90;65.90
11647;DHT22;5880;52.342;9.662;2023-07-31T03:35:18;19.90;66.00
11647;DHT22;5880;52.342;9.662;2023-07-31T03:37:44;19.90;65.90
11647;DHT22;5880;52.342;9.662;2023-07-31T03:40:10;19.90;65.80
11647;DHT22;5880;52.342;9.662;2023-07-31T03:42:36;19.90;65.80
11647;DHT22;5880;52.342;9.662;2023-07-31T03:45:02;19.90;65.90
11647;DHT22;5880;52.342;9.662;2023-07-31T03:47:28;19.80;65.70
11647;DHT22;5880;52.342;9.662;2023-07-31T03:49:54;19.80;65.80
11647;DHT22;5880;52.342;9.662;2023-07-31T03:52:19;19.80;65.80
11647;DHT22;5880;52.342;9.662;2023-07-31T03:54:45;19.80;65.80
11647;DHT22;5880;52.342;9.662;2023-07-31T03:57:11;19.70;66.60
11647;DHT22;5880;52.342;9.662;2023-07-31T03:59:37;19.70;66.00
11647;DHT22;5880;52.342;9.662;2023-07-31T04:02:04;19.60;66.00
11647;DHT22;5880;52.342;9.662;2023-07-31T04:04:30;19.60;66.10
11647;DHT22;5880;52.342;9.662;2023-07-31T04:06:56;19.60;66.10
11647;DHT22;5880;52.342;9.662;2023-07-31T04:09:21;19.60;66.20
11647;DHT22;5880;52.342;9.662;2023-07-31T04:11:47;19.60;66.30
11647;DHT22;5880;52.342;9.662;2023-07-31T04:14:13;19.50;66.30
11647;DHT22;5880;52.342;9.662;2023-07-31T04:16:38;19.50;66.50
11647;DHT22;5880;52.342;9.662;2023-07-31T04:19:04;19.50;66.50
11647;DHT22;5880;52.342;9.662;2023-07-31T04:21:30;19.60;66.60
11647;DHT22;5880;52.342;9.662;2023-07-31T04:23:55;19.50;66.60
11647;DHT22;5880;52.342;9.662;2023-07-31T04:26:21;19.50;66.70
11647;DHT22;5880;52.342;9.662;2023-07-31T04:28:47;19.50;66.80
11647;DHT22;5880;52.342;9.662;2023-07-31T04:31:13;19.50;66.80
11647;DHT22;5880;52.342;9.662;2023-07-31T04:33:39;19.50;66.80
11647;DHT22;5880;52.342;9.662;2023-07-31T04:36:05;19.60;66.80
11647;DHT22;5880;52.342;9.662;2023-07-31T04:38:30;19.50;66.80
11647;DHT22;5880;52.342;9.662;2023-07-31T04:40:56;19.50;66.90
11647;DHT22;5880;52.342;9.662;2023-07-31T04:43:22;19.50;66.80
11647;DHT22;5880;52.342;9.662;2023-07-31T04:45:48;19.70;66.90
11647;DHT22;5880;52.342;9.662;2023-07-31T04:48:15;19.50;66.80
11647;DHT22;5880;52.342;9.662;2023-07-31T04:50:41;19.50;66.90
11647;DHT22;5880;52.342;9.662;2023-07-31T04:53:07;19.40;67.00
11647;DHT22;5880;52.342;9.662;2023-07-31T04:55:33;19.40;67.00
11647;DHT22;5880;52.342;9.662;2023-07-31T04:57:59;19.40;67.10
11647;DHT22;5880;52.342;9.662;2023-07-31T05:00:25;19.40;67.30
11647;DHT22;5880;52.342;9.662;2023-07-31T05:02:51;19.30;67.30
11647;DHT22;5880;52.342;9.662;2023-07-31T05:05:16;19.30;67.40
11647;DHT22;5880;52.342;9.662;2023-07-31T05:07:42;19.30;67.50
11647;DHT22;5880;52.342;9.662;2023-07-31T05:10:08;19.30;67.50
11647;DHT22;5880;52.342;9.662;2023-07-31T05:12:34;19.30;67.70
11647;DHT22;5880;52.342;9.662;2023-07-31T05:14:59;19.30;67.70
11647;DHT22;5880;52.342;9.662;2023-07-31T05:17:25;19.20;67.70
11647;DHT22;5880;52.342;9.662;2023-07-31T05:19:51;19.20;67.80
11647;DHT22;5880;52.342;9.662;2023-07-31T05:22:16;19.30;68.00
11647;DHT22;5880;52.342;9.662;2023-07-31T05:24:42;19.20;67.90
11647;DHT22;5880;52.342;9.662;2023-07-31T05:27:08;19.30;68.10
11647;DHT22;5880;52.342;9.662;2023-07-31T05:29:35;19.50;68.30
11647;DHT22;5880;52.342;9.662;2023-07-31T05:32:01;19.20;68.30
11647;DHT22;5880;52.342;9.662;2023-07-31T05:34:26;19.20;68.30
11647;DHT22;5880;52.342;9.662;2023-07-31T05:36:52;19.30;68.50
11647;DHT22;5880;52.342;9.662;2023-07-31T05:39:18;19.30;68.50
11647;DHT22;5880;52.342;9.662;2023-07-31T05:41:45;19.20;68.60
11647;DHT22;5880;52.342;9.662;2023-07-31T05:44:11;19.20;68.80
11647;DHT22;5880;52.342;9.662;2023-07-31T05:46:37;19.20;68.90
11647;DHT22;5880;52.342;9.662;2023-07-31T05:49:02;19.20;69.10
11647;DHT22;5880;52.342;9.662;2023-07-31T05:51:28;19.20;69.10
11647;DHT22;5880;52.342;9.662;2023-07-31T05:53:53;19.30;69.20
11647;DHT22;5880;52.342;9.662;2023-07-31T05:56:19;19.30;69.20
11647;DHT22;5880;52.342;9.662;2023-07-31T05:58:45;19.30;69.20
11647;DHT22;5880;52.342;9.662;2023-07-31T06:01:11;19.30;69.60
11647;DHT22;5880;52.342;9.662;2023-07-31T06:03:36;19.30;69.50
11647;DHT22;5880;52.342;9.662;2023-07-31T06:06:02;19.30;69.60
11647;DHT22;5880;52.342;9.662;2023-07-31T06:08:28;19.30;69.80
11647;DHT22;5880;52.342;9.662;2023-07-31T06:10:53;19.40;69.60
11647;DHT22;5880;52.342;9.662;2023-07-31T06:13:19;19.40;69.90
11647;DHT22;5880;52.342;9.662;2023-07-31T06:15:45;19.30;69.90
11647;DHT22;5880;52.342;9.662;2023-07-31T06:18:10;19.40;69.90
11647;DHT22;5880;52.342;9.662;2023-07-31T06:20:36;19.40;69.80
11647;DHT22;5880;52.342;9.662;2023-07-31T06:23:02;19.40;69.90
11647;DHT22;5880;52.342;9.662;2023-07-31T06:25:29;19.50;70.00
11647;DHT22;5880;52.342;9.662;2023-07-31T06:27:54;19.50;69.90
11647;DHT22;5880;52.342;9.662;2023-07-31T06:30:20;19.50;69.80
11647;DHT22;5880;52.342;9.662;2023-07-31T06:32:45;19.50;69.80
11647;DHT22;5880;52.342;9.662;2023-07-31T06:35:11;19.60;69.90
11647;DHT22;5880;52.342;9.662;2023-07-31T06:37:37;19.60;69.70
11647;DHT22;5880;52.342;9.662;2023-07-31T06:40:06;19.60;69.70
11647;DHT22;5880;52.342;9.662;2023-07-31T06:42:34;19.60;69.80
11647;DHT22;5880;52.342;9.662;2023-07-31T06:45:01;19.60;69.60
11647;DHT22;5880;52.342;9.662;2023-07-31T06:47:27;19.60;69.60
11647;DHT22;5880;52.342;9.662;2023-07-31T06:49:53;19.60;69.40
11647;DHT22;5880;52.342;9.662;2023-07-31T06:52:18;19.60;69.50
11647;DHT22;5880;52.342;9.662;2023-07-31T06:54:53;19.60;69.60
11647;DHT22;5880;52.342;9.662;2023-07-31T06:57:26;19.60;69.60
11647;DHT22;5880;52.342;9.662;2023-07-31T06:59:51;19.50;69.50
11647;DHT22;5880;52.342;9.662;2023-07-31T07:02:17;19.50;69.50
11647;DHT22;5880;52.342;9.662;2023-07-31T07:04:43;19.50;69.50
11647;DHT22;5880;52.342;9.662;2023-07-31T07:07:08;19.50;69.60
11647;DHT22;5880;52.342;9.662;2023-07-31T07:09:34;19.50;69.70
11647;DHT22;5880;52.342;9.662;2023-07-31T07:12:00;19.50;69.80
11647;DHT22;5880;52.342;9.662;2023-07-31T07:14:26;19.50;70.00
11647;DHT22;5880;52.342;9.662;2023-07-31T07:16:52;19.50;70.00
11647;DHT22;5880;52.342;9.662;2023-07-31T07:19:17;19.60;70.00
11647;DHT22;5880;52.342;9.662;2023-07-31T07:21:43;19.60;70.00
11647;DHT22;5880;52.342;9.662;2023-07-31T07:24:09;19.60;69.90
11647;DHT22;5880;52.342;9.662;2023-07-31T07:26:34;19.60;70.00
11647;DHT22;5880;52.342;9.662;2023-07-31T07:29:00;19.60;70.20
11647;DHT22;5880;52.342;9.662;2023-07-31T07:31:27;19.60;70.30
11647;DHT22;5880;52.342;9.662;2023-07-31T07:33:53;19.80;70.50
11647;DHT22;5880;52.342;9.662;2023-07-31T07:36:19;19.70;70.50
11647;DHT22;5880;52.342;9.662;2023-07-31T07:38:45;19.80;70.70
11647;DHT22;5880;52.342;9.662;2023-07-31T07:41:11;19.80;70.70
11647;DHT22;5880;52.342;9.662;2023-07-31T07:43:36;19.90;71.00
11647;DHT22;5880;52.342;9.662;2023-07-31T07:46:02;19.90;71.10
11647;DHT22;5880;52.342;9.662;2023-07-31T07:48:27;20.00;71.10
11647;DHT22;5880;52.342;9.662;2023-07-31T07:50:53;20.10;71.20
11647;DHT22;5880;52.342;9.662;2023-07-31T07:53:19;20.10;71.00
11647;DHT22;5880;52.342;9.662;2023-07-31T07:55:44;20.20;70.90
11647;DHT22;5880;52.342;9.662;2023-07-31T07:58:10;20.30;70.80
11647;DHT22;5880;52.342;9.662;2023-07-31T08:00:36;20.30;70.90
11647;DHT22;5880;52.342;9.662;2023-07-31T08:03:01;20.30;71.00
11647;DHT22;5880;52.342;9.662;2023-07-31T08:05:27;20.40;71.10
11647;DHT22;5880;52.342;9.662;2023-07-31T08:07:53;20.60;70.90
11647;DHT22;5880;52.342;9.662;2023-07-31T08:10:19;20.50;70.70
11647;DHT22;5880;52.342;9.662;2023-07-31T08:12:44;20.60;70.60
11647;DHT22;5880;52.342;9.662;2023-07-31T08:15:10;20.70;70.90
11647;DHT22;5880;52.342;9.662;2023-07-31T08:17:36;20.70;70.70
11647;DHT22;5880;52.342;9.662;2023-07-31T08:20:01;20.80;70.50
11647;DHT22;5880;52.342;9.662;2023-07-31T08:22:27;20.80;70.50
11647;DHT22;5880;52.342;9.662;2023-07-31T08:24:53;20.90;70.70
11647;DHT22;5880;52.342;9.662;2023-07-31T08:27:19;20.90;70.50
11647;DHT22;5880;52.342;9.662;2023-07-31T08:29:44;21.00;70.40
11647;DHT22;5880;52.342;9.662;2023-07-31T08:32:10;21.00;70.40
11647;DHT22;5880;52.342;9.662;2023-07-31T08:34:36;21.00;70.20
11647;DHT22;5880;52.342;9.662;2023-07-31T08:37:01;21.00;70.00
11647;DHT22;5880;52.342;9.662;2023-07-31T08:39:27;21.00;69.70
11647;DHT22;5880;52.342;9.662;2023-07-31T08:41:58;21.00;69.40
11647;DHT22;5880;52.342;9.662;2023-07-31T08:44:25;21.00;69.00
11647;DHT22;5880;52.342;9.662;2023-07-31T08:46:51;21.00;68.80
11647;DHT22;5880;52.342;9.662;2023-07-31T08:49:20;20.90;68.70
11647;DHT22;5880;52.342;9.662;2023-07-31T08:51:49;20.90;68.60
11647;DHT22;5880;52.342;9.662;2023-07-31T08:54:16;21.10;68.70
11647;DHT22;5880;52.342;9.662;2023-07-31T08:56:42;20.90;68.70
11647;DHT22;5880;52.342;9.662;2023-07-31T08:59:08;20.80;68.80
11647;DHT22;5880;52.342;9.662;2023-07-31T09:01:41;20.80;69.20
11647;DHT22;5880;52.342;9.662;2023-07-31T09:04:14;20.80;69.50
11647;DHT22;5880;52.342;9.662;2023-07-31T09:06:43;20.80;69.30
11647;DHT22;5880;52.342;9.662;2023-07-31T09:09:10;20.80;69.10
11647;DHT22;5880;52.342;9.662;2023-07-31T09:11:35;20.80;69.20
11647;DHT22;5880;52.342;9.662;2023-07-31T09:14:02;21.00;69.60
11647;DHT22;5880;52.342;9.662;2023-07-31T09:16:34;20.90;70.00
11647;DHT22;5880;52.342;9.662;2023-07-31T09:19:00;20.80;69.90
11647;DHT22;5880;52.342;9.662;2023-07-31T09:21:27;20.90;69.90
11647;DHT22;5880;52.342;9.662;2023-07-31T09:23:54;20.90;69.90
11647;DHT22;5880;52.342;9.662;2023-07-31T09:26:36;20.90;69.80
11647;DHT22;5880;52.342;9.662;2023-07-31T09:29:07;20.90;70.20
11647;DHT22;5880;52.342;9.662;2023-07-31T09:31:44;21.00;69.60
11647;DHT22;5880;52.342;9.662;2023-07-31T09:34:10;21.00;69.30
11647;DHT22;5880;52.342;9.662;2023-07-31T09:36:44;21.10;69.50
11647;DHT22;5880;52.342;9.662;2023-07-31T09:39:12;21.00;69.70
11647;DHT22;5880;52.342;9.662;2023-07-31T09:41:39;21.00;69.50
11647;DHT22;5880;52.342;9.662;2023-07-31T09:44:07;21.00;69.60
11647;DHT22;5880;52.342;9.662;2023-07-31T09:46:35;21.00;69.70
11647;DHT22;5880;52.342;9.662;2023-07-31T09:49:13;21.00;69.70
11647;DHT22;5880;52.342;9.662;2023-07-31T09:51:41;21.00;69.90
11647;DHT22;5880;52.342;9.662;2023-07-31T09:54:12;21.00;69.40
11647;DHT22;5880;52.342;9.662;2023-07-31T09:56:46;21.00;69.70
11647;DHT22;5880;52.342;9.662;2023-07-31T09:59:18;21.00;69.80
11647;DHT22;5880;52.342;9.662;2023-07-31T10:01:45;21.00;69.80
11647;DHT22;5880;52.342;9.662;2023-07-31T10:04:13;21.00;69.60
11647;DHT22;5880;52.342;9.662;2023-07-31T10:06:40;21.00;69.70
11647;DHT22;5880;52.342;9.662;2023-07-31T10:09:10;21.00;69.80
11647;DHT22;5880;52.342;9.662;2023-07-31T10:11:52;21.00;69.80
11647;DHT22;5880;52.342;9.662;2023-07-31T10:14:26;21.10;70.10
11647;DHT22;5880;52.342;9.662;2023-07-31T10:16:54;21.10;69.70
11647;DHT22;5880;52.342;9.662;2023-07-31T10:19:21;21.10;69.60
11647;DHT22;5880;52.342;9.662;2023-07-31T10:21:48;21.10;69.50
11647;DHT22;5880;52.342;9.662;2023-07-31T10:24:15;21.10;69.50
11647;DHT22;5880;52.342;9.662;2023-07-31T10:26:45;21.10;69.50
11647;DHT22;5880;52.342;9.662;2023-07-31T10:29:15;21.10;69.70
11647;DHT22;5880;52.342;9.662;2023-07-31T10:31:44;21.10;69.80
11647;DHT22;5880;52.342;9.662;2023-07-31T10:34:12;21.10;69.70
11647;DHT22;5880;52.342;9.662;2023-07-31T10:36:39;21.30;70.00
11647;DHT22;5880;52.342;9.662;2023-07-31T10:39:35;21.20;69.90
11647;DHT22;5880;52.342;9.662;2023-07-31T10:42:12;21.30;70.40
11647;DHT22;5880;52.342;9.662;2023-07-31T10:44:43;21.30;70.30
11647;DHT22;5880;52.342;9.662;2023-07-31T10:47:13;21.30;69.80
11647;DHT22;5880;52.342;9.662;2023-07-31T10:49:40;21.30;69.50
11647;DHT22;5880;52.342;9.662;2023-07-31T10:52:11;21.40;69.40
11647;DHT22;5880;52.342;9.662;2023-07-31T10:54:39;21.30;69.50
11647;DHT22;5880;52.342;9.662;2023-07-31T10:57:19;21.30;69.20
11647;DHT22;5880;52.342;9.662;2023-07-31T10:59:46;21.30;69.60
11647;DHT22;5880;52.342;9.662;2023-07-31T11:02:27;21.40;69.20
11647;DHT22;5880;52.342;9.662;2023-07-31T11:05:13;21.30;69.60
11647;DHT22;5880;52.342;9.662;2023-07-31T11:07:49;21.30;69.50
11647;DHT22;5880;52.342;9.662;2023-07-31T11:10:18;21.40;69.30
11647;DHT22;5880;52.342;9.662;2023-07-31T11:12:45;21.40;69.20
11647;DHT22;5880;52.342;9.662;2023-07-31T11:15:12;21.40;69.10
11647;DHT22;5880;52.342;9.662;2023-07-31T11:17:40;21.50;69.20
11647;DHT22;5880;52.342;9.662;2023-07-31T11:20:07;21.40;69.10
11647;DHT22;5880;52.342;9.662;2023-07-31T11:22:35;21.40;69.10
11647;DHT22;5880;52.342;9.662;2023-07-31T11:25:03;21.50;69.20
11647;DHT22;5880;52.342;9.662;2023-07-31T11:27:29;21.40;69.00
11647;DHT22;5880;52.342;9.662;2023-07-31T11:30:02;21.40;69.10
11647;DHT22;5880;52.342;9.662;2023-07-31T11:32:28;21.50;69.60
11647;DHT22;5880;52.342;9.662;2023-07-31T11:34:54;21.50;69.20
11647;DHT22;5880;52.342;9.662;2023-07-31T11:37:20;21.50;69.20
11647;DHT22;5880;52.342;9.662;2023-07-31T11:39:59;21.40;69.10
11647;DHT22;5880;52.342;9.662;2023-07-31T11:42:25;21.50;70.00
11647;DHT22;5880;52.342;9.662;2023-07-31T11:44:51;21.50;69.40
11647;DHT22;5880;52.342;9.662;2023-07-31T11:47:17;21.50;69.40
11647;DHT22;5880;52.342;9.662;2023-07-31T11:49:43;21.60;69.50
11647;DHT22;5880;52.342;9.662;2023-07-31T11:52:10;21.50;69.50
11647;DHT22;5880;52.342;9.662;2023-07-31T11:54:38;21.50;69.50
11647;DHT22;5880;52.342;9.662;2023-07-31T11:57:06;21.50;69.50
11647;DHT22;5880;52.342;9.662;2023-07-31T11:59:32;21.70;69.70
11647;DHT22;5880;52.342;9.662;2023-07-31T12:01:58;21.60;69.50
11647;DHT22;5880;52.342;9.662;2023-07-31T12:04:24;21.60;69.60
11647;DHT22;5880;52.342;9.662;2023-07-31T12:06:52;21.70;69.80
11647;DHT22;5880;52.342;9.662;2023-07-31T12:09:18;21.60;69.70
11647;DHT22;5880;52.342;9.662;2023-07-31T12:11:45;21.80;69.80
11647;DHT22;5880;52.342;9.662;2023-07-31T12:14:25;21.70;69.60
11647;DHT22;5880;52.342;9.662;2023-07-31T12:17:04;21.70;69.80
11647;DHT22;5880;52.342;9.662;2023-07-31T12:19:30;21.70;69.80
11647;DHT22;5880;52.342;9.662;2023-07-31T12:21:58;21.80;69.40
11647;DHT22;5880;52.342;9.662;2023-07-31T12:24:26;21.80;69.30
11647;DHT22;5880;52.342;9.662;2023-07-31T12:26:52;21.70;69.30
11647;DHT22;5880;52.342;9.662;2023-07-31T12:29:20;21.70;69.30
11647;DHT22;5880;52.342;9.662;2023-07-31T12:31:45;21.70;69.40
11647;DHT22;5880;52.342;9.662;2023-07-31T12:34:16;21.70;69.40
11647;DHT22;5880;52.342;9.662;2023-07-31T12:36:43;21.70;69.80
11647;DHT22;5880;52.342;9.662;2023-07-31T12:39:09;21.70;69.70
11647;DHT22;5880;52.342;9.662;2023-07-31T12:41:35;21.80;69.80
11647;DHT22;5880;52.342;9.662;2023-07-31T12:44:02;21.70;69.80
11647;DHT22;5880;52.342;9.662;2023-07-31T12:46:28;21.70;70.00
11647;DHT22;5880;52.342;9.662;2023-07-31T12:48:54;21.70;70.00
11647;DHT22;5880;52.342;9.662;2023-07-31T12:51:20;21.70;70.00
11647;DHT22;5880;52.342;9.662;2023-07-31T12:53:46;21.90;70.20
11647;DHT22;5880;52.342;9.662;2023-07-31T12:56:12;21.80;70.00
11647;DHT22;5880;52.342;9.662;2023-07-31T12:58:37;21.80;70.00
11647;DHT22;5880;52.342;9.662;2023-07-31T13:01:03;21.90;69.90
11647;DHT22;5880;52.342;9.662;2023-07-31T13:03:29;22.00;69.90
11647;DHT22;5880;52.342;9.662;2023-07-31T13:05:55;22.00;70.00
11647;DHT22;5880;52.342;9.662;2023-07-31T13:08:20;22.40;70.40
11647;DHT22;5880;52.342;9.662;2023-07-31T13:10:46;22.20;70.20
11647;DHT22;5880;52.342;9.662;2023-07-31T13:13:12;22.30;70.00
11647;DHT22;5880;52.342;9.662;2023-07-31T13:15:38;22.40;69.30
11647;DHT22;5880;52.342;9.662;2023-07-31T13:18:04;22.40;69.10
11647;DHT22;5880;52.342;9.662;2023-07-31T13:20:29;22.50;69.20
11647;DHT22;5880;52.342;9.662;2023-07-31T13:22:55;22.60;69.00
11647;DHT22;5880;52.342;9.662;2023-07-31T13:25:20;22.60;68.80
11647;DHT22;5880;52.342;9.662;2023-07-31T13:27:46;22.70;68.60
11647;DHT22;5880;52.342;9.662;2023-07-31T13:30:12;22.70;68.10
11647;DHT22;5880;52.342;9.662;2023-07-31T13:32:37;22.70;67.80
11647;DHT22;5880;52.342;9.662;2023-07-31T13:35:08;22.70;68.30
11647;DHT22;5880;52.342;9.662;2023-07-31T13:37:35;22.80;67.40
11647;DHT22;5880;52.342;9.662;2023-07-31T13:40:00;22.80;67.70
11647;DHT22;5880;52.342;9.662;2023-07-31T13:42:26;22.70;67.70
11647;DHT22;5880;52.342;9.662;2023-07-31T13:44:53;22.80;67.90
11647;DHT22;5880;52.342;9.662;2023-07-31T13:47:21;22.90;68.30
11647;DHT22;5880;52.342;9.662;2023-07-31T13:49:47;22.90;68.20
11647;DHT22;5880;52.342;9.662;2023-07-31T13:52:12;23.00;68.00
11647;DHT22;5880;52.342;9.662;2023-07-31T13:54:38;23.10;68.00
11647;DHT22;5880;52.342;9.662;2023-07-31T13:57:04;23.10;67.70
11647;DHT22;5880;52.342;9.662;2023-07-31T13:59:30;23.10;67.50
11647;DHT22;5880;52.342;9.662;2023-07-31T14:01:56;23.00;67.50
11647;DHT22;5880;52.342;9.662;2023-07-31T14:04:21;23.00;67.20
11647;DHT22;5880;52.342;9.662;2023-07-31T14:06:47;23.10;68.00
11647;DHT22;5880;52.342;9.662;2023-07-31T14:09:15;23.10;67.10
11647;DHT22;5880;52.342;9.662;2023-07-31T14:11:42;23.00;66.90
11647;DHT22;5880;52.342;9.662;2023-07-31T14:14:09;23.00;66.70
11647;DHT22;5880;52.342;9.662;2023-07-31T14:16:35;23.00;66.70
11647;DHT22;5880;52.342;9.662;2023-07-31T14:19:01;23.00;66.70
11647;DHT22;5880;52.342;9.662;2023-07-31T14:21:27;22.90;66.90
11647;DHT22;5880;52.342;9.662;2023-07-31T14:23:52;22.90;67.00
11647;DHT22;5880;52.342;9.662;2023-07-31T14:26:18;22.90;67.20
11647;DHT22;5880;52.342;9.662;2023-07-31T14:28:44;22.90;67.00
11647;DHT22;5880;52.342;9.662;2023-07-31T14:31:10;22.90;67.10
11647;DHT22;5880;52.342;9.662;2023-07-31T14:33:36;23.00;67.10
11647;DHT22;5880;52.342;9.662;2023-07-31T14:36:01;23.00;66.90
11647;DHT22;5880;52.342;9.662;2023-07-31T14:38:27;22.90;66.80
11647;DHT22;5880;52.342;9.662;2023-07-31T14:40:53;22.90;66.80
11647;DHT22;5880;52.342;9.662;2023-07-31T14:43:18;22.90;66.80
11647;DHT22;5880;52.342;9.662;2023-07-31T14:45:44;22.90;66.60
11647;DHT22;5880;52.342;9.662;2023-07-31T14:48:11;22.90;66.70
11647;DHT22;5880;52.342;9.662;2023-07-31T14:50:37;22.90;66.90
11647;DHT22;5880;52.342;9.662;2023-07-31T14:53:03;22.90;66.90
11647;DHT22;5880;52.342;9.662;2023-07-31T14:55:29;22.90;66.90
11647;DHT22;5880;52.342;9.662;2023-07-31T14:57:54;23.00;66.90
11647;DHT22;5880;52.342;9.662;2023-07-31T15:00:20;22.90;66.80
11647;DHT22;5880;52.342;9.662;2023-07-31T15:02:46;22.90;66.90
11647;DHT22;5880;52.342;9.662;2023-07-31T15:05:12;22.90;67.00
11647;DHT22;5880;52.342;9.662;2023-07-31T15:07:37;23.00;66.90
11647;DHT22;5880;52.342;9.662;2023-07-31T15:10:03;23.00;67.10
11647;DHT22;5880;52.342;9.662;2023-07-31T15:12:30;23.10;67.10
11647;DHT22;5880;52.342;9.662;2023-07-31T15:14:57;23.20;66.90
11647;DHT22;5880;52.342;9.662;2023-07-31T15:17:22;23.30;66.60
11647;DHT22;5880;52.342;9.662;2023-07-31T15:19:48;23.30;66.70
11647;DHT22;5880;52.342;9.662;2023-07-31T15:22:14;23.30;66.80
11647;DHT22;5880;52.342;9.662;2023-07-31T15:24:39;23.30;66.30
11647;DHT22;5880;52.342;9.662;2023-07-31T15:27:05;23.40;66.00
11647;DHT22;5880;52.342;9.662;2023-07-31T15:29:33;23.40;65.80
11647;DHT22;5880;52.342;9.662;2023-07-31T15:32:05;23.40;65.60
11647;DHT22;5880;52.342;9.662;2023-07-31T15:34:31;23.40;65.60
11647;DHT22;5880;52.342;9.662;2023-07-31T15:36:56;23.40;65.30
11647;DHT22;5880;52.342;9.662;2023-07-31T15:39:22;23.50;65.30
11647;DHT22;5880;52.342;9.662;2023-07-31T15:41:48;23.30;65.10
11647;DHT22;5880;52.342;9.662;2023-07-31T15:44:13;23.30;65.30
11647;DHT22;5880;52.342;9.662;2023-07-31T15:46:39;23.20;65.30
11647;DHT22;5880;52.342;9.662;2023-07-31T15:49:05;23.20;65.50